X  Schlie├čen METAR Luftfahrt Wetterdaten        LDPL Pula
Temperatur
12°C Temperatur
10°C Taupunkt
88% Feuchtigkeit



Wind
20 KM/S
13 MPS
6 M/S
11 KTS



130°
SO
Aktuelle Wetterlage

Mostly Sunny Meist sonnig
Luftdruck 1004 (hPa) - 29.65 (inHg)
Sichtweite 6 (Meile) - 10 (Km)
Flughafen
Flughafen Code LDPL

Position : Pula
Entfernung: 39 (Km)

Metar:
METAR LDPL 230600Z 13011KT 090V170 9999 FEW010 12/10 Q1004 NOSIG

Zeit: 23-02-2024 07:00 CET